Rosendale, Wisconsin
Current Conditions -  °F | °C
As of 6:53 PM on Tuesday 21 Oct 2014 (Local Time) from KFLD Reporting Station
Clear Clear  
Wind Chill: 40°   Ceiling: Unl
Heat Index: 43°   Visibility: 10mi
Dew Point: 33°   Wind: 5mph
Humidity: 68%   Direction: 40°NE
Pressure: 30.25"   Gusts: NA
Location:  43.81°N, 88.67°W
Report Text: KFLD 212353Z AUTO 04004KT 10SM CLR 06/01 A3025 RMK AO2 SLP248 T00610006 10100 20061 53006
Loading
Personal Weather Stations






























Interactive Weather Map
Tropical Storm Tracking
New forecast layout! Learn more

10-Day Weather Forecast

Advertisements
Track Severe Weather on mobile